sensor_id;sensor_type;location;lat;lon;timestamp;temperature;humidity
66576;SHT31;53428;47.686;16.584;2024-03-25T00:00:15;6.70;71.35
66576;SHT31;53428;47.686;16.584;2024-03-25T00:05:14;6.70;71.81
66576;SHT31;53428;47.686;16.584;2024-03-25T00:10:16;6.75;71.95
66576;SHT31;53428;47.686;16.584;2024-03-25T00:15:16;6.65;71.56
66576;SHT31;53428;47.686;16.584;2024-03-25T00:20:15;6.72;71.78
66576;SHT31;53428;47.686;16.584;2024-03-25T00:25:14;6.77;70.96
66576;SHT31;53428;47.686;16.584;2024-03-25T00:30:15;6.81;70.25
66576;SHT31;53428;47.686;16.584;2024-03-25T00:35:14;6.83;70.84
66576;SHT31;53428;47.686;16.584;2024-03-25T00:40:14;6.76;71.54
66576;SHT31;53428;47.686;16.584;2024-03-25T00:45:13;6.75;73.07
66576;SHT31;53428;47.686;16.584;2024-03-25T00:50:12;6.70;72.81
66576;SHT31;53428;47.686;16.584;2024-03-25T00:55:11;6.66;73.34
66576;SHT31;53428;47.686;16.584;2024-03-25T01:00:11;6.75;73.69
66576;SHT31;53428;47.686;16.584;2024-03-25T01:05:11;6.69;72.88
66576;SHT31;53428;47.686;16.584;2024-03-25T01:10:10;6.75;72.60
66576;SHT31;53428;47.686;16.584;2024-03-25T01:15:09;6.73;73.11
66576;SHT31;53428;47.686;16.584;2024-03-25T01:20:11;6.97;70.53
66576;SHT31;53428;47.686;16.584;2024-03-25T01:25:11;7.24;69.86
66576;SHT31;53428;47.686;16.584;2024-03-25T01:30:10;7.41;70.13
66576;SHT31;53428;47.686;16.584;2024-03-25T01:35:10;7.41;70.38
66576;SHT31;53428;47.686;16.584;2024-03-25T01:40:10;7.46;70.51
66576;SHT31;53428;47.686;16.584;2024-03-25T01:45:09;7.45;70.97
66576;SHT31;53428;47.686;16.584;2024-03-25T01:50:09;7.41;71.40
66576;SHT31;53428;47.686;16.584;2024-03-25T01:55:14;7.43;71.58
66576;SHT31;53428;47.686;16.584;2024-03-25T02:00:15;7.39;71.91
66576;SHT31;53428;47.686;16.584;2024-03-25T02:05:18;7.25;72.47
66576;SHT31;53428;47.686;16.584;2024-03-25T02:10:18;7.16;72.78
66576;SHT31;53428;47.686;16.584;2024-03-25T02:15:18;7.18;72.90
66576;SHT31;53428;47.686;16.584;2024-03-25T02:20:17;7.09;73.12
66576;SHT31;53428;47.686;16.584;2024-03-25T02:25:17;7.21;72.77
66576;SHT31;53428;47.686;16.584;2024-03-25T02:30:16;7.25;72.23
66576;SHT31;53428;47.686;16.584;2024-03-25T02:35:16;7.34;72.02
66576;SHT31;53428;47.686;16.584;2024-03-25T02:40:16;7.41;71.61
66576;SHT31;53428;47.686;16.584;2024-03-25T02:45:15;7.43;71.76
66576;SHT31;53428;47.686;16.584;2024-03-25T02:50:14;7.24;72.38
66576;SHT31;53428;47.686;16.584;2024-03-25T02:55:13;7.21;72.48
66576;SHT31;53428;47.686;16.584;2024-03-25T03:00:13;7.11;72.51
66576;SHT31;53428;47.686;16.584;2024-03-25T03:05:12;6.98;73.30
66576;SHT31;53428;47.686;16.584;2024-03-25T03:10:11;6.95;72.98
66576;SHT31;53428;47.686;16.584;2024-03-25T03:15:10;6.80;73.32
66576;SHT31;53428;47.686;16.584;2024-03-25T03:20:10;6.53;74.37
66576;SHT31;53428;47.686;16.584;2024-03-25T03:25:10;6.21;75.23
66576;SHT31;53428;47.686;16.584;2024-03-25T03:30:10;6.19;75.59
66576;SHT31;53428;47.686;16.584;2024-03-25T03:35:09;6.04;76.08
66576;SHT31;53428;47.686;16.584;2024-03-25T03:40:09;6.19;75.68
66576;SHT31;53428;47.686;16.584;2024-03-25T03:45:10;6.09;76.55
66576;SHT31;53428;47.686;16.584;2024-03-25T03:50:09;6.19;76.06
66576;SHT31;53428;47.686;16.584;2024-03-25T03:55:08;6.22;76.33
66576;SHT31;53428;47.686;16.584;2024-03-25T04:00:09;6.11;76.65
66576;SHT31;53428;47.686;16.584;2024-03-25T04:05:11;6.02;76.71
66576;SHT31;53428;47.686;16.584;2024-03-25T04:10:10;5.98;76.68
66576;SHT31;53428;47.686;16.584;2024-03-25T04:15:09;5.87;77.82
66576;SHT31;53428;47.686;16.584;2024-03-25T04:20:15;5.53;77.89
66576;SHT31;53428;47.686;16.584;2024-03-25T04:25:14;5.35;80.04
66576;SHT31;53428;47.686;16.584;2024-03-25T04:30:14;5.22;80.19
66576;SHT31;53428;47.686;16.584;2024-03-25T04:35:13;5.35;79.65
66576;SHT31;53428;47.686;16.584;2024-03-25T04:40:12;5.26;80.10
66576;SHT31;53428;47.686;16.584;2024-03-25T04:45:17;5.38;79.67
66576;SHT31;53428;47.686;16.584;2024-03-25T04:50:17;5.47;79.15
66576;SHT31;53428;47.686;16.584;2024-03-25T04:55:16;5.71;78.41
66576;SHT31;53428;47.686;16.584;2024-03-25T05:00:15;5.88;76.27
66576;SHT31;53428;47.686;16.584;2024-03-25T05:05:15;6.11;76.79
66576;SHT31;53428;47.686;16.584;2024-03-25T05:10:14;6.33;75.88
66576;SHT31;53428;47.686;16.584;2024-03-25T05:15:13;6.26;76.41
66576;SHT31;53428;47.686;16.584;2024-03-25T05:20:13;6.30;76.22
66576;SHT31;53428;47.686;16.584;2024-03-25T05:25:12;6.49;74.54
66576;SHT31;53428;47.686;16.584;2024-03-25T05:30:11;6.42;76.53
66576;SHT31;53428;47.686;16.584;2024-03-25T05:35:11;6.56;74.95
66576;SHT31;53428;47.686;16.584;2024-03-25T05:40:11;6.65;75.00
66576;SHT31;53428;47.686;16.584;2024-03-25T05:45:10;6.98;72.52
66576;SHT31;53428;47.686;16.584;2024-03-25T05:50:10;7.22;72.36
66576;SHT31;53428;47.686;16.584;2024-03-25T05:55:09;7.59;71.08
66576;SHT31;53428;47.686;16.584;2024-03-25T06:00:11;7.83;70.05
66576;SHT31;53428;47.686;16.584;2024-03-25T06:05:12;7.90;69.63
66576;SHT31;53428;47.686;16.584;2024-03-25T06:10:11;8.00;69.42
66576;SHT31;53428;47.686;16.584;2024-03-25T06:15:10;7.84;70.26
66576;SHT31;53428;47.686;16.584;2024-03-25T06:20:10;7.97;71.23
66576;SHT31;53428;47.686;16.584;2024-03-25T06:25:09;8.22;69.38
66576;SHT31;53428;47.686;16.584;2024-03-25T06:30:09;8.28;68.46
66576;SHT31;53428;47.686;16.584;2024-03-25T06:35:27;8.28;68.83
66576;SHT31;53428;47.686;16.584;2024-03-25T06:40:26;8.17;68.81
66576;SHT31;53428;47.686;16.584;2024-03-25T06:45:25;8.32;68.80
66576;SHT31;53428;47.686;16.584;2024-03-25T06:50:25;8.48;67.51
66576;SHT31;53428;47.686;16.584;2024-03-25T06:55:24;8.37;68.01
66576;SHT31;53428;47.686;16.584;2024-03-25T07:00:26;8.62;66.83
66576;SHT31;53428;47.686;16.584;2024-03-25T07:05:25;8.68;66.28
66576;SHT31;53428;47.686;16.584;2024-03-25T07:10:24;8.66;66.08
66576;SHT31;53428;47.686;16.584;2024-03-25T07:15:24;8.86;65.53
66576;SHT31;53428;47.686;16.584;2024-03-25T07:20:23;9.42;64.36
66576;SHT31;53428;47.686;16.584;2024-03-25T07:25:23;9.65;62.25
66576;SHT31;53428;47.686;16.584;2024-03-25T07:30:23;9.66;61.27
66576;SHT31;53428;47.686;16.584;2024-03-25T07:35:26;9.85;62.05
66576;SHT31;53428;47.686;16.584;2024-03-25T07:40:25;9.68;60.42
66576;SHT31;53428;47.686;16.584;2024-03-25T07:45:25;9.51;61.19
66576;SHT31;53428;47.686;16.584;2024-03-25T07:50:25;9.85;60.23
66576;SHT31;53428;47.686;16.584;2024-03-25T07:55:24;10.67;59.79
66576;SHT31;53428;47.686;16.584;2024-03-25T08:00:23;10.89;59.32
66576;SHT31;53428;47.686;16.584;2024-03-25T08:05:22;11.20;58.23
66576;SHT31;53428;47.686;16.584;2024-03-25T08:10:21;11.34;57.34
66576;SHT31;53428;47.686;16.584;2024-03-25T08:15:20;11.43;57.54
66576;SHT31;53428;47.686;16.584;2024-03-25T08:20:20;11.64;57.25
66576;SHT31;53428;47.686;16.584;2024-03-25T08:25:19;11.36;58.07
66576;SHT31;53428;47.686;16.584;2024-03-25T08:30:18;11.40;57.48
66576;SHT31;53428;47.686;16.584;2024-03-25T08:35:17;11.70;57.25
66576;SHT31;53428;47.686;16.584;2024-03-25T08:40:16;11.94;56.71
66576;SHT31;53428;47.686;16.584;2024-03-25T08:45:15;11.60;55.80
66576;SHT31;53428;47.686;16.584;2024-03-25T08:50:15;11.48;56.22
66576;SHT31;53428;47.686;16.584;2024-03-25T08:55:14;11.50;56.44
66576;SHT31;53428;47.686;16.584;2024-03-25T09:00:14;11.66;56.56
66576;SHT31;53428;47.686;16.584;2024-03-25T09:05:13;11.33;57.52
66576;SHT31;53428;47.686;16.584;2024-03-25T09:10:12;11.51;56.18
66576;SHT31;53428;47.686;16.584;2024-03-25T09:15:50;11.71;55.82
66576;SHT31;53428;47.686;16.584;2024-03-25T09:20:49;12.01;55.80
66576;SHT31;53428;47.686;16.584;2024-03-25T09:25:54;11.81;55.30
66576;SHT31;53428;47.686;16.584;2024-03-25T09:30:53;12.14;54.43
66576;SHT31;53428;47.686;16.584;2024-03-25T09:35:52;12.49;54.32
66576;SHT31;53428;47.686;16.584;2024-03-25T09:40:52;12.26;53.76
66576;SHT31;53428;47.686;16.584;2024-03-25T09:45:54;12.32;53.89
66576;SHT31;53428;47.686;16.584;2024-03-25T09:50:55;12.50;52.39
66576;SHT31;53428;47.686;16.584;2024-03-25T09:55:56;12.80;53.00
66576;SHT31;53428;47.686;16.584;2024-03-25T10:00:56;13.21;52.63
66576;SHT31;53428;47.686;16.584;2024-03-25T10:05:57;12.90;52.22
66576;SHT31;53428;47.686;16.584;2024-03-25T10:10:56;12.39;52.99
66576;SHT31;53428;47.686;16.584;2024-03-25T10:15:55;12.70;52.88
66576;SHT31;53428;47.686;16.584;2024-03-25T10:20:55;13.08;52.37
66576;SHT31;53428;47.686;16.584;2024-03-25T10:25:55;12.84;54.20
66576;SHT31;53428;47.686;16.584;2024-03-25T10:30:56;12.79;53.61
66576;SHT31;53428;47.686;16.584;2024-03-25T10:36:02;12.40;54.40
66576;SHT31;53428;47.686;16.584;2024-03-25T10:41:02;12.83;53.57
66576;SHT31;53428;47.686;16.584;2024-03-25T10:46:03;12.49;52.87
66576;SHT31;53428;47.686;16.584;2024-03-25T10:51:03;11.57;54.92
66576;SHT31;53428;47.686;16.584;2024-03-25T10:56:05;11.44;56.04
66576;SHT31;53428;47.686;16.584;2024-03-25T11:01:05;12.21;55.01
66576;SHT31;53428;47.686;16.584;2024-03-25T11:06:05;11.79;55.24
66576;SHT31;53428;47.686;16.584;2024-03-25T11:11:05;11.22;55.54
66576;SHT31;53428;47.686;16.584;2024-03-25T11:16:05;11.12;56.60
66576;SHT31;53428;47.686;16.584;2024-03-25T11:21:06;11.88;56.89
66576;SHT31;53428;47.686;16.584;2024-03-25T11:26:24;11.94;56.76
66576;SHT31;53428;47.686;16.584;2024-03-25T11:31:25;11.20;59.70
66576;SHT31;53428;47.686;16.584;2024-03-25T11:36:25;11.56;58.39
66576;SHT31;53428;47.686;16.584;2024-03-25T11:41:24;12.04;56.88
66576;SHT31;53428;47.686;16.584;2024-03-25T11:46:26;13.93;53.43
66576;SHT31;53428;47.686;16.584;2024-03-25T11:51:25;16.47;48.65
66576;SHT31;53428;47.686;16.584;2024-03-25T11:56:26;15.42;49.57
66576;SHT31;53428;47.686;16.584;2024-03-25T12:01:25;16.38;48.63
66576;SHT31;53428;47.686;16.584;2024-03-25T12:06:25;15.93;47.59
66576;SHT31;53428;47.686;16.584;2024-03-25T12:11:24;17.27;46.95
66576;SHT31;53428;47.686;16.584;2024-03-25T12:16:24;16.20;47.62
66576;SHT31;53428;47.686;16.584;2024-03-25T12:21:23;13.28;53.69
66576;SHT31;53428;47.686;16.584;2024-03-25T12:26:23;13.22;53.88
66576;SHT31;53428;47.686;16.584;2024-03-25T12:31:23;14.28;51.90
66576;SHT31;53428;47.686;16.584;2024-03-25T12:36:22;13.73;51.43
66576;SHT31;53428;47.686;16.584;2024-03-25T12:41:25;16.48;47.49
66576;SHT31;53428;47.686;16.584;2024-03-25T12:46:25;16.55;47.10
66576;SHT31;53428;47.686;16.584;2024-03-25T12:51:24;17.29;45.67
66576;SHT31;53428;47.686;16.584;2024-03-25T12:56:24;16.45;45.37
66576;SHT31;53428;47.686;16.584;2024-03-25T13:01:23;18.15;42.48
66576;SHT31;53428;47.686;16.584;2024-03-25T13:06:22;16.96;45.40
66576;SHT31;53428;47.686;16.584;2024-03-25T13:11:22;16.18;44.96
66576;SHT31;53428;47.686;16.584;2024-03-25T13:16:21;16.57;47.56
66576;SHT31;53428;47.686;16.584;2024-03-25T13:21:20;16.17;47.50
66576;SHT31;53428;47.686;16.584;2024-03-25T13:26:19;15.86;49.87
66576;SHT31;53428;47.686;16.584;2024-03-25T13:31:19;16.45;48.42
66576;SHT31;53428;47.686;16.584;2024-03-25T13:36:18;17.57;46.59
66576;SHT31;53428;47.686;16.584;2024-03-25T13:41:17;15.66;48.07
66576;SHT31;53428;47.686;16.584;2024-03-25T13:46:20;17.16;47.44
66576;SHT31;53428;47.686;16.584;2024-03-25T13:51:19;15.62;49.60
66576;SHT31;53428;47.686;16.584;2024-03-25T13:56:19;16.36;47.34
66576;SHT31;53428;47.686;16.584;2024-03-25T14:01:18;16.61;46.82
66576;SHT31;53428;47.686;16.584;2024-03-25T14:06:17;17.53;43.44
66576;SHT31;53428;47.686;16.584;2024-03-25T14:11:17;15.45;46.05
66576;SHT31;53428;47.686;16.584;2024-03-25T14:16:16;15.72;47.20
66576;SHT31;53428;47.686;16.584;2024-03-25T14:21:15;16.71;44.45
66576;SHT31;53428;47.686;16.584;2024-03-25T14:26:15;15.92;45.34
66576;SHT31;53428;47.686;16.584;2024-03-25T14:31:14;15.38;45.32
66576;SHT31;53428;47.686;16.584;2024-03-25T14:36:13;15.68;44.64
66576;SHT31;53428;47.686;16.584;2024-03-25T14:41:12;15.62;44.36
66576;SHT31;53428;47.686;16.584;2024-03-25T14:46:11;16.72;43.71
66576;SHT31;53428;47.686;16.584;2024-03-25T14:51:10;17.03;43.22
66576;SHT31;53428;47.686;16.584;2024-03-25T14:56:10;18.81;41.41
66576;SHT31;53428;47.686;16.584;2024-03-25T15:01:09;17.61;42.54
66576;SHT31;53428;47.686;16.584;2024-03-25T15:06:08;16.41;41.86
66576;SHT31;53428;47.686;16.584;2024-03-25T15:11:10;18.53;40.44
66576;SHT31;53428;47.686;16.584;2024-03-25T15:16:09;17.23;42.01
66576;SHT31;53428;47.686;16.584;2024-03-25T15:21:08;18.10;41.26
66576;SHT31;53428;47.686;16.584;2024-03-25T15:26:07;16.76;43.58
66576;SHT31;53428;47.686;16.584;2024-03-25T15:31:07;16.57;42.49
66576;SHT31;53428;47.686;16.584;2024-03-25T15:36:06;17.88;40.28
66576;SHT31;53428;47.686;16.584;2024-03-25T15:41:05;16.96;42.05
66576;SHT31;53428;47.686;16.584;2024-03-25T15:46:04;16.27;43.70
66576;SHT31;53428;47.686;16.584;2024-03-25T15:51:06;17.23;44.89
66576;SHT31;53428;47.686;16.584;2024-03-25T15:56:05;16.75;45.76
66576;SHT31;53428;47.686;16.584;2024-03-25T16:01:06;16.28;46.24
66576;SHT31;53428;47.686;16.584;2024-03-25T16:06:05;16.03;46.71
66576;SHT31;53428;47.686;16.584;2024-03-25T16:11:04;15.68;47.17
66576;SHT31;53428;47.686;16.584;2024-03-25T16:16:04;15.55;46.85
66576;SHT31;53428;47.686;16.584;2024-03-25T16:21:22;15.31;47.54
66576;SHT31;53428;47.686;16.584;2024-03-25T16:26:22;12.44;52.45
66576;SHT31;53428;47.686;16.584;2024-03-25T16:31:22;11.68;53.46
66576;SHT31;53428;47.686;16.584;2024-03-25T16:36:21;11.46;53.81
66576;SHT31;53428;47.686;16.584;2024-03-25T16:41:21;11.44;52.35
66576;SHT31;53428;47.686;16.584;2024-03-25T16:46:21;11.26;52.48
66576;SHT31;53428;47.686;16.584;2024-03-25T16:51:20;11.02;53.12
66576;SHT31;53428;47.686;16.584;2024-03-25T16:56:19;10.72;53.80
66576;SHT31;53428;47.686;16.584;2024-03-25T17:01:19;10.40;54.72
66576;SHT31;53428;47.686;16.584;2024-03-25T17:06:19;10.33;55.16
66576;SHT31;53428;47.686;16.584;2024-03-25T17:11:19;10.31;54.78
66576;SHT31;53428;47.686;16.584;2024-03-25T17:16:18;9.89;56.70
66576;SHT31;53428;47.686;16.584;2024-03-25T17:21:17;9.85;57.98
66576;SHT31;53428;47.686;16.584;2024-03-25T17:26:16;9.48;59.16
66576;SHT31;53428;47.686;16.584;2024-03-25T17:31:16;9.32;58.68
66576;SHT31;53428;47.686;16.584;2024-03-25T17:36:17;9.01;60.40
66576;SHT31;53428;47.686;16.584;2024-03-25T17:41:16;8.69;61.28
66576;SHT31;53428;47.686;16.584;2024-03-25T17:46:15;8.63;62.28
66576;SHT31;53428;47.686;16.584;2024-03-25T17:51:14;8.42;63.54
66576;SHT31;53428;47.686;16.584;2024-03-25T17:56:14;8.10;64.85
66576;SHT31;53428;47.686;16.584;2024-03-25T18:01:13;8.31;65.37
66576;SHT31;53428;47.686;16.584;2024-03-25T18:06:12;8.11;65.79
66576;SHT31;53428;47.686;16.584;2024-03-25T18:11:11;7.86;66.81
66576;SHT31;53428;47.686;16.584;2024-03-25T18:16:14;7.93;66.80
66576;SHT31;53428;47.686;16.584;2024-03-25T18:21:14;8.08;66.26
66576;SHT31;53428;47.686;16.584;2024-03-25T18:26:13;7.93;66.94
66576;SHT31;53428;47.686;16.584;2024-03-25T18:31:15;7.83;66.39
66576;SHT31;53428;47.686;16.584;2024-03-25T18:36:15;7.73;66.77
66576;SHT31;53428;47.686;16.584;2024-03-25T18:41:15;7.77;66.78
66576;SHT31;53428;47.686;16.584;2024-03-25T18:46:14;7.59;67.71
66576;SHT31;53428;47.686;16.584;2024-03-25T18:51:14;7.34;68.47
66576;SHT31;53428;47.686;16.584;2024-03-25T18:56:13;7.09;69.69
66576;SHT31;53428;47.686;16.584;2024-03-25T19:01:13;6.83;70.30
66576;SHT31;53428;47.686;16.584;2024-03-25T19:06:12;7.07;69.69
66576;SHT31;53428;47.686;16.584;2024-03-25T19:11:12;6.88;70.78
66576;SHT31;53428;47.686;16.584;2024-03-25T19:16:12;6.62;70.73
66576;SHT31;53428;47.686;16.584;2024-03-25T19:21:11;7.01;69.53
66576;SHT31;53428;47.686;16.584;2024-03-25T19:26:11;6.67;71.43
66576;SHT31;53428;47.686;16.584;2024-03-25T19:31:11;6.75;71.60
66576;SHT31;53428;47.686;16.584;2024-03-25T19:36:10;6.53;72.47
66576;SHT31;53428;47.686;16.584;2024-03-25T19:41:10;6.38;73.28
66576;SHT31;53428;47.686;16.584;2024-03-25T19:46:09;6.05;74.36
66576;SHT31;53428;47.686;16.584;2024-03-25T19:51:10;5.70;75.44
66576;SHT31;53428;47.686;16.584;2024-03-25T19:56:10;5.50;76.51
66576;SHT31;53428;47.686;16.584;2024-03-25T20:01:10;5.31;76.93
66576;SHT31;53428;47.686;16.584;2024-03-25T20:06:10;5.43;76.82
66576;SHT31;53428;47.686;16.584;2024-03-25T20:11:11;5.32;77.05
66576;SHT31;53428;47.686;16.584;2024-03-25T20:16:11;5.21;77.13
66576;SHT31;53428;47.686;16.584;2024-03-25T20:21:10;4.94;77.26
66576;SHT31;53428;47.686;16.584;2024-03-25T20:26:10;5.01;77.17
66576;SHT31;53428;47.686;16.584;2024-03-25T20:31:10;5.01;77.48
66576;SHT31;53428;47.686;16.584;2024-03-25T20:36:10;4.64;77.90
66576;SHT31;53428;47.686;16.584;2024-03-25T20:41:09;4.80;77.52
66576;SHT31;53428;47.686;16.584;2024-03-25T20:46:12;4.43;78.28
66576;SHT31;53428;47.686;16.584;2024-03-25T20:51:13;4.26;79.01
66576;SHT31;53428;47.686;16.584;2024-03-25T20:56:12;4.25;79.26
66576;SHT31;53428;47.686;16.584;2024-03-25T21:01:12;4.12;79.82
66576;SHT31;53428;47.686;16.584;2024-03-25T21:06:11;4.08;80.23
66576;SHT31;53428;47.686;16.584;2024-03-25T21:11:10;3.94;80.33
66576;SHT31;53428;47.686;16.584;2024-03-25T21:16:10;3.71;80.74
66576;SHT31;53428;47.686;16.584;2024-03-25T21:21:09;3.79;81.07
66576;SHT31;53428;47.686;16.584;2024-03-25T21:26:08;4.01;81.11
66576;SHT31;53428;47.686;16.584;2024-03-25T21:31:08;4.09;80.68
66576;SHT31;53428;47.686;16.584;2024-03-25T21:36:09;3.81;81.57
66576;SHT31;53428;47.686;16.584;2024-03-25T21:41:08;3.57;82.21
66576;SHT31;53428;47.686;16.584;2024-03-25T21:46:07;4.08;81.78
66576;SHT31;53428;47.686;16.584;2024-03-25T21:51:07;3.88;81.99
66576;SHT31;53428;47.686;16.584;2024-03-25T21:56:06;3.91;82.15
66576;SHT31;53428;47.686;16.584;2024-03-25T22:01:05;3.87;82.46
66576;SHT31;53428;47.686;16.584;2024-03-25T22:06:05;3.73;83.44
66576;SHT31;53428;47.686;16.584;2024-03-25T22:11:04;3.78;82.63
66576;SHT31;53428;47.686;16.584;2024-03-25T22:16:04;3.89;83.06
66576;SHT31;53428;47.686;16.584;2024-03-25T22:21:06;3.79;82.82
66576;SHT31;53428;47.686;16.584;2024-03-25T22:26:05;3.75;83.28
66576;SHT31;53428;47.686;16.584;2024-03-25T22:31:04;3.73;83.05
66576;SHT31;53428;47.686;16.584;2024-03-25T22:36:04;3.91;82.07
66576;SHT31;53428;47.686;16.584;2024-03-25T22:41:03;3.79;82.77
66576;SHT31;53428;47.686;16.584;2024-03-25T22:46:03;3.77;83.33
66576;SHT31;53428;47.686;16.584;2024-03-25T22:51:04;3.77;82.98
66576;SHT31;53428;47.686;16.584;2024-03-25T22:56:07;3.89;82.23
66576;SHT31;53428;47.686;16.584;2024-03-25T23:01:08;4.43;80.41
66576;SHT31;53428;47.686;16.584;2024-03-25T23:06:07;4.37;80.15
66576;SHT31;53428;47.686;16.584;2024-03-25T23:11:06;4.49;79.75
66576;SHT31;53428;47.686;16.584;2024-03-25T23:16:06;4.65;79.03
66576;SHT31;53428;47.686;16.584;2024-03-25T23:21:05;4.70;78.29
66576;SHT31;53428;47.686;16.584;2024-03-25T23:26:04;4.33;78.48
66576;SHT31;53428;47.686;16.584;2024-03-25T23:31:04;4.56;78.03
66576;SHT31;53428;47.686;16.584;2024-03-25T23:36:03;4.39;78.34
66576;SHT31;53428;47.686;16.584;2024-03-25T23:41:03;4.37;78.35
66576;SHT31;53428;47.686;16.584;2024-03-25T23:46:02;4.63;77.58
66576;SHT31;53428;47.686;16.584;2024-03-25T23:51:02;4.58;77.80
66576;SHT31;53428;47.686;16.584;2024-03-25T23:56:01;4.74;77.84
